createdAt,value
2023-01-13T00:00:15.244Z,97.34
2023-01-13T00:02:49.811Z,97.60
2023-01-13T00:05:25.907Z,96.09
2023-01-13T00:08:00.954Z,95.79
2023-01-13T00:10:35.802Z,95.88
2023-01-13T00:13:10.773Z,95.70
2023-01-13T00:15:45.001Z,95.79
2023-01-13T00:18:19.557Z,96.37
2023-01-13T00:21:01.724Z,96.12
2023-01-13T00:23:37.057Z,95.55
2023-01-13T00:26:13.192Z,95.82
2023-01-13T00:28:47.733Z,96.38
2023-01-13T00:31:22.536Z,96.94
2023-01-13T00:33:58.478Z,97.03
2023-01-13T00:36:34.056Z,97.55
2023-01-13T00:39:08.974Z,97.43
2023-01-13T00:42:00.776Z,100.00
2023-01-13T00:44:35.271Z,100.00
2023-01-13T00:47:09.406Z,96.42
2023-01-13T00:49:44.010Z,96.17
2023-01-13T00:52:19.720Z,96.19
2023-01-13T00:54:54.395Z,96.02
2023-01-13T00:57:28.655Z,96.27
2023-01-13T01:00:03.719Z,96.96
2023-01-13T01:02:38.168Z,97.46
2023-01-13T01:05:12.810Z,97.92
2023-01-13T01:07:48.488Z,97.77
2023-01-13T01:10:23.999Z,97.81
2023-01-13T01:12:58.328Z,97.61
2023-01-13T01:15:32.924Z,97.50
2023-01-13T01:18:07.193Z,97.23
2023-01-13T01:20:41.792Z,97.22
2023-01-13T01:23:17.562Z,96.95
2023-01-13T01:25:52.154Z,96.29
2023-01-13T01:28:26.388Z,96.03
2023-01-13T01:31:02.128Z,96.10
2023-01-13T01:33:36.784Z,96.05
2023-01-13T01:36:13.591Z,95.61
2023-01-13T01:38:49.774Z,95.82
2023-01-13T01:41:26.867Z,96.30
2023-01-13T01:44:07.144Z,96.30
2023-01-13T01:46:43.830Z,96.38
2023-01-13T01:49:21.692Z,96.36
2023-01-13T01:52:00.477Z,96.39
2023-01-13T01:54:42.276Z,97.06
2023-01-13T01:57:21.203Z,96.19
2023-01-13T01:59:56.763Z,95.87
2023-01-13T02:02:32.366Z,95.92
2023-01-13T02:05:07.888Z,96.02
2023-01-13T02:07:45.575Z,96.64
2023-01-13T02:10:24.452Z,97.23
2023-01-13T02:13:01.894Z,97.35
2023-01-13T02:15:42.589Z,97.69
2023-01-13T02:18:32.888Z,97.87
2023-01-13T02:21:47.611Z,97.50
2023-01-13T02:24:56.861Z,97.15
2023-01-13T02:27:45.462Z,96.13
2023-01-13T02:30:49.527Z,95.75
2023-01-13T02:33:47.455Z,95.77
2023-01-13T02:36:30.251Z,96.66
2023-01-13T02:39:11.387Z,97.37
2023-01-13T02:42:09.032Z,97.33
2023-01-13T02:44:48.840Z,97.51
2023-01-13T02:47:27.367Z,97.58
2023-01-13T02:50:05.323Z,97.16
2023-01-13T02:52:44.796Z,96.98
2023-01-13T02:55:23.168Z,97.23
2023-01-13T02:57:59.833Z,97.19
2023-01-13T03:00:36.819Z,97.15
2023-01-13T03:03:12.411Z,96.45
2023-01-13T03:05:49.437Z,96.10
2023-01-13T03:08:42.971Z,96.00
2023-01-13T03:11:20.269Z,95.83
2023-01-13T03:14:08.298Z,95.99
2023-01-13T03:16:53.794Z,95.82
2023-01-13T03:19:38.814Z,95.66
2023-01-13T03:22:22.441Z,95.82
2023-01-13T03:25:01.846Z,96.32
2023-01-13T03:27:45.531Z,96.78
2023-01-13T03:30:23.689Z,97.17
2023-01-13T03:33:04.789Z,97.10
2023-01-13T03:35:41.765Z,97.49
2023-01-13T03:38:20.199Z,97.37
2023-01-13T03:40:58.212Z,97.39
2023-01-13T03:43:55.957Z,96.60
2023-01-13T03:46:38.453Z,96.43
2023-01-13T03:49:18.339Z,96.40
2023-01-13T03:51:58.309Z,95.90
2023-01-13T03:54:39.075Z,96.52
2023-01-13T03:57:16.951Z,95.90
2023-01-13T04:00:00.006Z,94.83
2023-01-13T04:02:46.476Z,94.55
2023-01-13T04:05:21.535Z,94.54
2023-01-13T04:08:03.569Z,94.68
2023-01-13T04:10:51.914Z,95.65
2023-01-13T04:13:29.990Z,96.40
2023-01-13T04:16:07.950Z,96.18
2023-01-13T04:18:42.106Z,95.71
2023-01-13T04:21:16.692Z,95.60
2023-01-13T04:23:52.294Z,94.80
2023-01-13T04:26:26.791Z,94.67
2023-01-13T04:29:00.965Z,94.15
2023-01-13T04:31:35.722Z,93.65
2023-01-13T04:34:11.053Z,93.99
2023-01-13T04:36:46.157Z,93.86
2023-01-13T04:39:21.804Z,92.99
2023-01-13T04:41:59.407Z,92.65
2023-01-13T04:44:35.500Z,92.88
2023-01-13T04:47:10.071Z,93.65
2023-01-13T04:49:44.488Z,93.25
2023-01-13T04:52:19.000Z,93.71
2023-01-13T04:54:54.613Z,93.53
2023-01-13T04:57:29.405Z,92.87
2023-01-13T05:00:04.217Z,92.69
2023-01-13T05:02:39.193Z,92.39
2023-01-13T05:05:13.626Z,92.82
2023-01-13T05:07:48.235Z,92.59
2023-01-13T05:10:24.297Z,92.83
2023-01-13T05:13:16.101Z,100.00
2023-01-13T05:16:11.101Z,100.00
2023-01-13T05:18:46.147Z,100.00
2023-01-13T05:21:38.100Z,98.61
2023-01-13T05:24:30.526Z,100.00
2023-01-13T05:27:06.177Z,100.00
2023-01-13T05:29:40.747Z,95.05
2023-01-13T05:32:14.905Z,92.84
2023-01-13T05:34:49.417Z,91.61
2023-01-13T05:37:24.378Z,91.33
2023-01-13T05:40:16.443Z,91.24
2023-01-13T05:43:19.907Z,100.00
2023-01-13T05:45:58.595Z,100.00
2023-01-13T05:48:34.929Z,94.25
2023-01-13T05:51:11.764Z,100.00
2023-01-13T05:53:46.020Z,96.86
2023-01-13T05:56:20.583Z,89.71
2023-01-13T05:58:56.483Z,89.32
2023-01-13T06:01:31.033Z,89.86
2023-01-13T06:04:06.040Z,89.99
2023-01-13T06:06:40.329Z,90.47
2023-01-13T06:09:14.945Z,90.95
2023-01-13T06:11:50.113Z,91.28
2023-01-13T06:14:26.148Z,91.06
2023-01-13T06:17:00.697Z,91.91
2023-01-13T06:19:36.824Z,91.33
2023-01-13T06:22:16.854Z,100.00
2023-01-13T06:24:53.684Z,100.00
2023-01-13T06:27:27.991Z,97.63
2023-01-13T06:30:04.050Z,93.02
2023-01-13T06:32:44.098Z,91.89
2023-01-13T06:35:23.795Z,91.96
2023-01-13T06:38:00.395Z,91.62
2023-01-13T06:40:35.798Z,92.51
2023-01-13T06:43:16.418Z,92.72
2023-01-13T06:45:54.914Z,91.99
2023-01-13T06:48:35.327Z,92.72
2023-01-13T06:51:10.094Z,92.29
2023-01-13T06:53:44.356Z,92.55
2023-01-13T06:56:18.819Z,91.72
2023-01-13T06:58:53.053Z,91.70
2023-01-13T07:03:07.101Z,92.33
2023-01-13T07:05:43.766Z,91.94
2023-01-13T07:08:18.027Z,91.52
2023-01-13T07:10:54.332Z,92.56
2023-01-13T07:13:45.891Z,92.20
2023-01-13T07:16:20.451Z,91.72
2023-01-13T07:18:56.203Z,92.03
2023-01-13T07:21:30.774Z,92.75
2023-01-13T07:24:05.403Z,92.56
2023-01-13T07:26:39.912Z,93.06
2023-01-13T07:29:14.425Z,93.88
2023-01-13T07:31:50.276Z,94.03
2023-01-13T07:34:25.992Z,93.11
2023-01-13T07:37:00.482Z,92.92
2023-01-13T07:39:34.761Z,100.00
2023-01-13T07:42:28.223Z,100.00
2023-01-13T07:45:02.668Z,98.91
2023-01-13T07:47:37.316Z,92.24
2023-01-13T07:50:13.219Z,91.11
2023-01-13T07:52:47.935Z,91.34
2023-01-13T07:55:22.141Z,91.60
2023-01-13T07:57:56.665Z,92.88
2023-01-13T08:00:31.838Z,93.51
2023-01-13T08:03:07.073Z,92.79
2023-01-13T08:05:42.744Z,93.83
2023-01-13T08:08:17.879Z,93.67
2023-01-13T08:10:52.374Z,92.80
2023-01-13T08:13:27.062Z,92.67
2023-01-13T08:16:03.129Z,93.35
2023-01-13T08:18:39.348Z,100.00
2023-01-13T08:21:16.641Z,99.17
2023-01-13T08:23:51.202Z,91.84
2023-01-13T08:26:25.451Z,92.21
2023-01-13T08:28:59.950Z,91.54
2023-01-13T08:31:34.261Z,90.72
2023-01-13T08:34:09.390Z,91.55
2023-01-13T08:36:44.917Z,91.83
2023-01-13T08:39:19.643Z,92.77
2023-01-13T08:41:56.883Z,93.36
2023-01-13T08:44:33.252Z,100.00
2023-01-13T08:47:07.923Z,100.00
2023-01-13T08:49:42.605Z,91.97
2023-01-13T08:52:18.205Z,92.12
2023-01-13T08:54:53.016Z,92.66
2023-01-13T08:57:27.257Z,92.47
2023-01-13T09:00:02.891Z,91.58
2023-01-13T09:02:39.707Z,93.15
2023-01-13T09:05:16.887Z,93.14
2023-01-13T09:07:53.378Z,92.29
2023-01-13T09:10:27.942Z,92.23
2023-01-13T09:13:13.605Z,92.38
2023-01-13T09:15:48.909Z,91.66
2023-01-13T09:18:23.468Z,92.75
2023-01-13T09:21:00.206Z,92.02
2023-01-13T09:23:35.802Z,100.00
2023-01-13T09:26:11.100Z,100.00
2023-01-13T09:28:45.410Z,89.74
2023-01-13T09:31:20.084Z,88.16
2023-01-13T09:34:12.092Z,89.62
2023-01-13T09:36:46.715Z,89.79
2023-01-13T09:39:22.939Z,91.24
2023-01-13T09:42:20.942Z,90.59
2023-01-13T09:45:05.070Z,91.50
2023-01-13T09:47:47.586Z,91.07
2023-01-13T09:50:27.626Z,91.60
2023-01-13T09:53:03.014Z,91.85
2023-01-13T09:55:38.786Z,92.03
2023-01-13T09:58:16.858Z,91.49
2023-01-13T10:01:03.852Z,91.13
2023-01-13T10:03:38.446Z,91.46
2023-01-13T10:06:16.928Z,91.45
2023-01-13T10:08:52.316Z,90.84
2023-01-13T10:11:51.289Z,89.26
2023-01-13T10:14:29.723Z,88.97
2023-01-13T10:17:13.432Z,88.72
2023-01-13T10:19:54.106Z,87.59
2023-01-13T10:22:55.450Z,88.19
2023-01-13T10:25:44.447Z,89.05
2023-01-13T10:28:20.608Z,89.54
2023-01-13T10:30:55.238Z,90.00
2023-01-13T10:33:30.066Z,88.98
2023-01-13T10:36:14.583Z,89.57
2023-01-13T10:38:51.259Z,88.85
2023-01-13T10:41:27.354Z,89.58
2023-01-13T10:44:04.785Z,88.89
2023-01-13T10:46:54.456Z,89.13
2023-01-13T10:49:33.828Z,88.42
2023-01-13T10:52:26.634Z,88.45
2023-01-13T10:55:01.247Z,88.69
2023-01-13T10:57:37.866Z,100.00
2023-01-13T11:00:28.546Z,93.87
2023-01-13T11:03:19.793Z,86.87
2023-01-13T11:05:55.779Z,87.60
2023-01-13T11:08:32.789Z,87.03
2023-01-13T11:11:27.564Z,86.47
2023-01-13T11:14:24.222Z,87.58
2023-01-13T11:17:05.418Z,87.65
2023-01-13T11:19:43.946Z,87.27
2023-01-13T11:22:24.677Z,88.08
2023-01-13T11:25:02.616Z,87.35
2023-01-13T11:27:43.894Z,87.35
2023-01-13T11:30:30.883Z,87.49
2023-01-13T11:33:24.475Z,87.60
2023-01-13T11:36:07.966Z,87.88
2023-01-13T11:38:48.846Z,86.57
2023-01-13T11:41:32.728Z,87.62
2023-01-13T11:44:17.594Z,86.59
2023-01-13T11:46:53.976Z,87.77
2023-01-13T11:49:34.007Z,100.00
2023-01-13T11:52:20.527Z,100.00
2023-01-13T11:55:07.147Z,85.64
2023-01-13T11:58:18.313Z,84.59
2023-01-13T12:01:08.427Z,86.37
2023-01-13T12:03:47.629Z,86.41
2023-01-13T12:06:33.835Z,85.87
2023-01-13T12:09:23.024Z,85.90
2023-01-13T12:12:22.961Z,86.39
2023-01-13T12:15:40.761Z,86.76
2023-01-13T12:18:48.305Z,86.31
2023-01-13T12:21:27.082Z,86.60
2023-01-13T12:24:10.992Z,86.91
2023-01-13T12:26:51.205Z,86.57
2023-01-13T12:29:32.744Z,86.36
2023-01-13T12:32:12.841Z,86.32
2023-01-13T12:35:01.065Z,86.04
2023-01-13T12:37:45.170Z,86.27
2023-01-13T12:40:42.664Z,86.08
2023-01-13T12:43:36.837Z,86.00
2023-01-13T12:46:57.187Z,86.23
2023-01-13T12:49:33.595Z,96.30
2023-01-13T12:52:18.508Z,99.82
2023-01-13T12:55:20.586Z,83.43
2023-01-13T12:58:15.837Z,83.51
2023-01-13T13:01:07.116Z,81.78
2023-01-13T13:03:41.963Z,82.23
2023-01-13T13:06:21.956Z,82.82
2023-01-13T13:09:04.367Z,84.01
2023-01-13T13:12:01.267Z,84.40
2023-01-13T13:15:03.392Z,85.14
2023-01-13T13:17:46.883Z,85.41
2023-01-13T13:21:03.956Z,86.20
2023-01-13T13:23:45.702Z,86.55
2023-01-13T13:26:46.877Z,86.83
2023-01-13T13:29:37.518Z,87.04
2023-01-13T13:32:35.906Z,86.59
2023-01-13T13:35:27.466Z,86.38
2023-01-13T13:38:35.105Z,86.87
2023-01-13T13:41:34.033Z,86.52
2023-01-13T13:44:33.582Z,86.92
2023-01-13T13:47:09.589Z,100.00
2023-01-13T13:49:46.722Z,85.86
2023-01-13T13:52:27.389Z,85.96
2023-01-13T13:55:12.057Z,85.74
2023-01-13T13:57:49.021Z,85.64
2023-01-13T14:00:28.552Z,86.01
2023-01-13T14:03:09.152Z,86.00
2023-01-13T14:05:55.316Z,86.11
2023-01-13T14:08:32.015Z,86.53
2023-01-13T14:11:27.289Z,86.95
2023-01-13T14:14:06.816Z,87.20
2023-01-13T14:16:41.895Z,86.82
2023-01-13T14:19:29.377Z,87.04
2023-01-13T14:22:06.022Z,86.80
2023-01-13T14:24:47.863Z,87.14
2023-01-13T14:27:23.934Z,86.98
2023-01-13T14:30:01.562Z,86.92
2023-01-13T14:32:38.767Z,87.73
2023-01-13T14:35:19.101Z,87.70
2023-01-13T14:38:02.713Z,87.88
2023-01-13T14:40:47.301Z,88.10
2023-01-13T14:43:26.796Z,88.15
2023-01-13T14:46:03.619Z,88.63
2023-01-13T14:48:39.716Z,88.32
2023-01-13T14:51:24.328Z,88.08
2023-01-13T14:53:59.858Z,89.15
2023-01-13T14:56:43.605Z,88.70
2023-01-13T14:59:35.558Z,89.20
2023-01-13T15:03:08.534Z,87.08
2023-01-13T15:05:48.362Z,87.08
2023-01-13T15:08:34.593Z,88.25
2023-01-13T15:11:25.218Z,88.85
2023-01-13T15:14:01.363Z,89.01
2023-01-13T15:16:36.957Z,88.88
2023-01-13T15:19:12.707Z,88.10
2023-01-13T15:21:48.348Z,87.93
2023-01-13T15:24:22.567Z,88.58
2023-01-13T15:26:57.028Z,88.87
2023-01-13T15:29:31.460Z,89.14
2023-01-13T15:32:06.659Z,89.39
2023-01-13T15:34:42.729Z,88.60
2023-01-13T15:37:19.531Z,89.08
2023-01-13T15:39:56.175Z,89.30
2023-01-13T15:42:48.206Z,90.02
2023-01-13T15:45:40.094Z,89.80
2023-01-13T15:48:15.046Z,89.25
2023-01-13T15:50:51.073Z,89.69
2023-01-13T15:53:26.144Z,89.44
2023-01-13T15:56:01.778Z,89.59
2023-01-13T15:58:36.680Z,89.33
2023-01-13T16:01:12.814Z,89.48
2023-01-13T16:03:47.519Z,90.16
2023-01-13T16:06:29.272Z,89.84
2023-01-13T16:09:04.652Z,90.17
2023-01-13T16:11:38.865Z,90.25
2023-01-13T16:14:14.301Z,90.60
2023-01-13T16:16:48.582Z,91.00
2023-01-13T16:19:23.121Z,91.12
2023-01-13T16:21:59.882Z,90.72
2023-01-13T16:24:34.388Z,90.83
2023-01-13T16:27:14.930Z,91.28
2023-01-13T16:29:51.006Z,91.48
2023-01-13T16:32:25.239Z,91.73
2023-01-13T16:34:59.869Z,91.88
2023-01-13T16:37:35.539Z,92.17
2023-01-13T16:40:22.751Z,92.20
2023-01-13T16:42:57.929Z,92.04
2023-01-13T16:45:33.334Z,91.31
2023-01-13T16:48:07.867Z,91.73
2023-01-13T16:50:43.795Z,92.07
2023-01-13T16:53:19.828Z,91.84
2023-01-13T16:55:54.405Z,91.93
2023-01-13T16:58:29.248Z,92.44
2023-01-13T17:01:05.172Z,91.90
2023-01-13T17:03:39.537Z,92.10
2023-01-13T17:06:14.198Z,92.63
2023-01-13T17:08:50.044Z,92.31
2023-01-13T17:11:24.593Z,92.68
2023-01-13T17:13:58.956Z,92.37
2023-01-13T17:16:33.583Z,92.53
2023-01-13T17:19:08.264Z,92.21
2023-01-13T17:21:42.827Z,92.36
2023-01-13T17:24:18.681Z,92.40
2023-01-13T17:26:53.227Z,92.91
2023-01-13T17:29:28.073Z,92.56
2023-01-13T17:32:03.248Z,92.68
2023-01-13T17:34:40.214Z,92.59
2023-01-13T17:37:15.334Z,92.74
2023-01-13T17:39:51.293Z,92.58
2023-01-13T17:42:28.054Z,92.25
2023-01-13T17:45:02.354Z,93.01
2023-01-13T17:47:37.193Z,92.98
2023-01-13T17:50:12.092Z,93.29
2023-01-13T17:52:47.668Z,93.33
2023-01-13T17:55:23.322Z,93.11
2023-01-13T17:57:57.967Z,92.67
2023-01-13T18:00:33.849Z,92.90
2023-01-13T18:03:08.636Z,92.65
2023-01-13T18:05:44.251Z,92.65
2023-01-13T18:08:19.633Z,92.74
2023-01-13T18:10:57.920Z,92.91
2023-01-13T18:13:34.707Z,92.79
2023-01-13T18:16:11.097Z,92.93
2023-01-13T18:18:47.390Z,92.66
2023-01-13T18:21:41.515Z,93.63
2023-01-13T18:24:35.448Z,92.86
2023-01-13T18:27:23.668Z,92.61
2023-01-13T18:30:01.472Z,93.48
2023-01-13T18:32:36.203Z,92.40
2023-01-13T18:35:11.459Z,92.68
2023-01-13T18:37:46.067Z,93.70
2023-01-13T18:40:21.727Z,93.29
2023-01-13T18:42:56.363Z,93.38
2023-01-13T18:45:32.951Z,93.12
2023-01-13T18:48:07.848Z,93.13
2023-01-13T18:50:42.772Z,93.33
2023-01-13T18:53:17.199Z,93.17
2023-01-13T18:55:55.416Z,92.85
2023-01-13T18:58:33.115Z,93.33
2023-01-13T19:01:10.862Z,93.33
2023-01-13T19:03:45.240Z,93.12
2023-01-13T19:06:19.839Z,92.73
2023-01-13T19:08:55.173Z,92.82
2023-01-13T19:11:30.689Z,92.19
2023-01-13T19:14:06.453Z,92.04
2023-01-13T19:16:41.174Z,92.60
2023-01-13T19:19:15.451Z,92.20
2023-01-13T19:21:50.072Z,92.33
2023-01-13T19:24:26.057Z,92.36
2023-01-13T19:27:00.745Z,92.25
2023-01-13T19:29:36.396Z,92.83
2023-01-13T19:32:12.036Z,92.80
2023-01-13T19:34:47.968Z,93.32
2023-01-13T19:37:22.876Z,92.57
2023-01-13T19:39:59.349Z,91.71
2023-01-13T19:42:51.941Z,91.70
2023-01-13T19:45:27.740Z,92.31
2023-01-13T19:48:05.152Z,94.01
2023-01-13T19:50:41.458Z,94.17
2023-01-13T19:53:18.781Z,94.48
2023-01-13T19:55:53.267Z,94.04
2023-01-13T19:58:29.186Z,93.58
2023-01-13T20:01:09.899Z,92.81
2023-01-13T20:03:46.154Z,92.74
2023-01-13T20:06:20.472Z,92.52
2023-01-13T20:08:55.045Z,92.59
2023-01-13T20:11:33.289Z,93.25
2023-01-13T20:14:07.825Z,92.66
2023-01-13T20:16:43.653Z,92.76
2023-01-13T20:19:18.620Z,92.60
2023-01-13T20:21:53.313Z,92.42
2023-01-13T20:24:27.957Z,92.56
2023-01-13T20:27:02.612Z,93.07
2023-01-13T20:29:39.012Z,93.00
2023-01-13T20:32:14.621Z,93.15
2023-01-13T20:34:49.167Z,92.64
2023-01-13T20:37:23.909Z,93.29
2023-01-13T20:40:01.553Z,95.10
2023-01-13T20:42:44.555Z,95.25
2023-01-13T20:45:20.980Z,95.70
2023-01-13T20:47:56.684Z,94.87
2023-01-13T20:50:33.481Z,94.33
2023-01-13T20:53:07.788Z,100.00
2023-01-13T20:55:42.410Z,100.00
2023-01-13T20:58:16.741Z,100.00
2023-01-13T21:00:51.358Z,98.51
2023-01-13T21:03:26.991Z,99.64
2023-01-13T21:06:01.672Z,97.89
2023-01-13T21:08:35.957Z,99.82
2023-01-13T21:11:11.305Z,99.47
2023-01-13T21:14:03.012Z,99.08
2023-01-13T21:16:37.625Z,97.87
2023-01-13T21:19:12.252Z,97.25
2023-01-13T21:21:46.964Z,97.26
2023-01-13T21:24:21.208Z,100.00
2023-01-13T21:26:58.218Z,100.00
2023-01-13T21:29:32.440Z,100.00
2023-01-13T21:32:06.987Z,98.04
2023-01-13T21:34:42.672Z,97.61
2023-01-13T21:37:18.115Z,98.04
2023-01-13T21:39:52.911Z,99.09
2023-01-13T21:42:45.260Z,100.00
2023-01-13T21:45:37.182Z,100.00
2023-01-13T21:48:11.817Z,100.00
2023-01-13T21:50:47.509Z,100.00
2023-01-13T21:53:22.117Z,100.00
2023-01-13T21:55:56.367Z,100.00
2023-01-13T21:58:30.899Z,100.00
2023-01-13T22:01:05.436Z,100.00
2023-01-13T22:03:54.847Z,100.00
2023-01-13T22:06:30.672Z,100.00
2023-01-13T22:09:05.504Z,100.00
2023-01-13T22:11:39.980Z,100.00
2023-01-13T22:14:14.486Z,100.00
2023-01-13T22:16:50.187Z,100.00
2023-01-13T22:19:25.134Z,100.00
2023-01-13T22:22:00.808Z,100.00
2023-01-13T22:24:35.289Z,100.00
2023-01-13T22:27:09.473Z,100.00
2023-01-13T22:29:45.388Z,100.00
2023-01-13T22:32:20.877Z,100.00
2023-01-13T22:34:55.622Z,100.00
2023-01-13T22:37:31.290Z,100.00
2023-01-13T22:40:10.271Z,100.00
2023-01-13T22:42:46.659Z,100.00
2023-01-13T22:45:21.148Z,98.97
2023-01-13T22:47:55.534Z,99.89
2023-01-13T22:50:30.277Z,100.00
2023-01-13T22:53:06.066Z,99.87
2023-01-13T22:55:40.576Z,99.66
2023-01-13T22:58:14.814Z,100.00
2023-01-13T23:03:08.638Z,96.94
2023-01-13T23:05:45.792Z,96.94
2023-01-13T23:08:20.064Z,98.82
2023-01-13T23:11:02.490Z,98.74
2023-01-13T23:13:38.044Z,99.77
2023-01-13T23:16:14.443Z,98.66
2023-01-13T23:18:50.353Z,99.96
2023-01-13T23:21:27.350Z,100.00
2023-01-13T23:24:01.705Z,99.36
2023-01-13T23:26:37.614Z,99.86
2023-01-13T23:29:14.150Z,99.70
2023-01-13T23:31:49.024Z,99.60
2023-01-13T23:34:24.658Z,99.48
2023-01-13T23:36:59.242Z,99.02
2023-01-13T23:39:33.615Z,99.50
2023-01-13T23:42:08.195Z,99.32
2023-01-13T23:44:42.408Z,99.73
2023-01-13T23:47:16.969Z,99.45
2023-01-13T23:49:53.450Z,99.04
2023-01-13T23:52:28.022Z,98.99
2023-01-13T23:55:02.592Z,99.02
2023-01-13T23:57:37.237Z,98.79
